Time;durP1;ratioP1;P1;durP2;ratioP2;P2;SDS_P1;SDS_P2;PMS_P1;PMS_P2;Temp;Humidity;BMP_temperature;BMP_pressure;BME280_temperature;BME280_humidity;BME280_pressure;Samples;Min_cycle;Max_cycle;Signal;HPM_P1;HPM_P2
2021/08/04 00:01:14;;;;;;;;;;;12.70;79.60;;;;;;5089504;28;19909;-65
2021/08/04 00:03:41;;;;;;;;;;;12.80;80.30;;;;;;5089363;28;19959;-65
2021/08/04 00:06:08;;;;;;;;;;;12.80;78.10;;;;;;5089007;28;20496;-64
2021/08/04 00:08:34;;;;;;;;;;;12.90;78.40;;;;;;5089347;28;20007;-66
2021/08/04 00:11:01;;;;;;;;;;;13.00;77.90;;;;;;5089341;28;19909;-65
2021/08/04 00:13:28;;;;;;;;;;;12.90;78.80;;;;;;5089312;28;19915;-65
2021/08/04 00:15:54;;;;;;;;;;;12.90;78.40;;;;;;5089096;28;19919;-67
2021/08/04 00:18:21;;;;;;;;;;;13.00;77.90;;;;;;5089364;28;19908;-66
2021/08/04 00:20:48;;;;;;;;;;;13.20;79.30;;;;;;5089208;28;20359;-64
2021/08/04 00:23:15;;;;;;;;;;;13.20;76.90;;;;;;5089074;28;19909;-64
2021/08/04 00:25:42;;;;;;;;;;;13.20;76.90;;;;;;5088820;28;19916;-64
2021/08/04 00:28:09;;;;;;;;;;;13.40;76.20;;;;;;5089040;28;19915;-64
2021/08/04 00:30:35;;;;;;;;;;;13.50;77.00;;;;;;5089536;28;19912;-64
2021/08/04 00:33:02;;;;;;;;;;;13.50;76.70;;;;;;5089038;28;20430;-64
2021/08/04 00:35:29;;;;;;;;;;;13.40;75.40;;;;;;5089139;28;19912;-64
2021/08/04 00:37:55;;;;;;;;;;;13.40;75.80;;;;;;5089061;28;20351;-64
2021/08/04 00:40:22;;;;;;;;;;;13.40;76.40;;;;;;5088808;28;19914;-64
2021/08/04 00:42:49;;;;;;;;;;;13.50;75.10;;;;;;5088828;28;20282;-65
2021/08/04 00:45:16;;;;;;;;;;;13.50;76.50;;;;;;5098936;28;20298;-64
2021/08/04 00:47:43;;;;;;;;;;;13.50;75.60;;;;;;5108900;28;19912;-64
2021/08/04 00:50:10;;;;;;;;;;;13.40;76.20;;;;;;5109020;28;19908;-63
2021/08/04 00:52:37;;;;;;;;;;;13.70;77.80;;;;;;5109013;28;20006;-65
2021/08/04 00:55:04;;;;;;;;;;;13.80;75.60;;;;;;5109041;28;19962;-64
2021/08/04 00:57:31;;;;;;;;;;;13.70;75.60;;;;;;5097013;28;19908;-66
2021/08/04 00:59:57;;;;;;;;;;;13.80;74.60;;;;;;5095248;28;19953;-66
2021/08/04 01:02:40;;;;;;;;;;;13.70;74.80;;;;;;5095149;28;19908;-64
2021/08/04 01:05:13;;;;;;;;;;;13.70;74.20;;;;;;5095006;28;19927;-64
2021/08/04 01:07:46;;;;;;;;;;;13.80;75.20;;;;;;5095004;28;19958;-65
2021/08/04 01:10:17;;;;;;;;;;;14.00;74.60;;;;;;5095204;28;19912;-65
2021/08/04 01:12:55;;;;;;;;;;;14.30;73.50;;;;;;5095374;28;20448;-64
2021/08/04 01:15:23;;;;;;;;;;;14.60;73.60;;;;;;5094868;28;19908;-65
2021/08/04 01:17:50;;;;;;;;;;;14.90;73.10;;;;;;5094468;28;20279;-65
2021/08/04 01:20:17;;;;;;;;;;;15.30;70.40;;;;;;5094948;28;19914;-64
2021/08/04 01:22:46;;;;;;;;;;;15.90;69.90;;;;;;5089667;28;20248;-66
2021/08/04 01:25:26;;;;;;;;;;;15.90;68.40;;;;;;5094908;28;19917;-65
2021/08/04 01:28:15;;;;;;;;;;;16.00;67.90;;;;;;5094530;28;19912;-65
2021/08/04 01:30:44;;;;;;;;;;;15.90;67.80;;;;;;5084045;28;19912;-65
2021/08/04 01:33:11;;;;;;;;;;;15.60;66.80;;;;;;5094519;28;19915;-64
2021/08/04 01:35:38;;;;;;;;;;;15.30;67.20;;;;;;5094472;28;20456;-64
2021/08/04 01:38:05;;;;;;;;;;;15.00;67.70;;;;;;5094226;28;19962;-65
2021/08/04 01:40:32;;;;;;;;;;;14.80;68.60;;;;;;5094500;28;19915;-64
2021/08/04 01:42:59;;;;;;;;;;;14.80;69.70;;;;;;5094431;28;19908;-66
2021/08/04 01:45:26;;;;;;;;;;;14.80;68.40;;;;;;5094149;28;19920;-65
2021/08/04 01:47:52;;;;;;;;;;;14.70;68.80;;;;;;5093844;28;20007;-65
2021/08/04 01:50:19;;;;;;;;;;;14.90;69.50;;;;;;5094357;28;19916;-66
2021/08/04 01:52:46;;;;;;;;;;;14.90;68.50;;;;;;5094107;28;19954;-67
2021/08/04 01:55:13;;;;;;;;;;;14.80;68.50;;;;;;5094264;28;19913;-66
2021/08/04 01:57:40;;;;;;;;;;;14.80;68.90;;;;;;5093881;28;19943;-64
2021/08/04 02:00:07;;;;;;;;;;;14.80;68.90;;;;;;5094018;28;19915;-66
2021/08/04 02:02:33;;;;;;;;;;;14.80;69.10;;;;;;5093964;28;19908;-65
2021/08/04 02:05:00;;;;;;;;;;;14.80;68.40;;;;;;5093987;28;19935;-65
2021/08/04 02:07:37;;;;;;;;;;;14.70;68.50;;;;;;5093448;28;19915;-65
2021/08/04 02:10:06;;;;;;;;;;;14.70;67.50;;;;;;5093545;28;19908;-66
2021/08/04 02:12:36;;;;;;;;;;;14.60;67.00;;;;;;5094002;28;19919;-65
2021/08/04 02:15:03;;;;;;;;;;;14.40;66.40;;;;;;5093700;28;19912;-65
2021/08/04 02:17:35;;;;;;;;;;;14.20;66.90;;;;;;5093449;28;19999;-65
2021/08/04 02:20:14;;;;;;;;;;;14.20;67.20;;;;;;5093749;28;20041;-65
2021/08/04 02:22:43;;;;;;;;;;;14.20;67.80;;;;;;5093740;28;19908;-64
2021/08/04 02:25:12;;;;;;;;;;;14.20;69.10;;;;;;5093418;28;20128;-64
2021/08/04 02:27:39;;;;;;;;;;;14.30;68.70;;;;;;5093365;28;19953;-65
2021/08/04 02:30:09;;;;;;;;;;;14.30;70.30;;;;;;5093631;28;19915;-64
2021/08/04 02:32:37;;;;;;;;;;;14.40;68.50;;;;;;5093386;28;19989;-64
2021/08/04 02:35:04;;;;;;;;;;;14.50;69.60;;;;;;5093438;28;20453;-64
2021/08/04 02:37:32;;;;;;;;;;;14.50;68.20;;;;;;5093050;28;19909;-64
2021/08/04 02:39:58;;;;;;;;;;;14.50;68.20;;;;;;5093352;28;19914;-65
2021/08/04 02:42:26;;;;;;;;;;;14.50;68.50;;;;;;5093127;28;20381;-64
2021/08/04 02:44:52;;;;;;;;;;;14.50;68.00;;;;;;5092653;28;20359;-64
2021/08/04 02:47:19;;;;;;;;;;;14.40;67.80;;;;;;5093031;28;19943;-64
2021/08/04 02:49:46;;;;;;;;;;;14.50;68.30;;;;;;5092955;28;20396;-63
2021/08/04 02:52:14;;;;;;;;;;;14.40;68.20;;;;;;5093234;28;19916;-64
2021/08/04 02:54:43;;;;;;;;;;;14.50;68.20;;;;;;5092958;28;19948;-64
2021/08/04 02:57:09;;;;;;;;;;;14.60;69.40;;;;;;5092930;28;20373;-64
2021/08/04 02:59:36;;;;;;;;;;;14.50;68.80;;;;;;5092912;28;19915;-64
2021/08/04 03:02:03;;;;;;;;;;;14.50;69.30;;;;;;5093137;28;19919;-64
2021/08/04 03:04:29;;;;;;;;;;;14.50;68.90;;;;;;5092905;28;20019;-64
2021/08/04 03:06:56;;;;;;;;;;;14.50;68.90;;;;;;5093428;28;19954;-65
2021/08/04 03:09:23;;;;;;;;;;;14.50;70.50;;;;;;5074738;28;19912;-65
2021/08/04 03:11:49;;;;;;;;;;;14.70;70.00;;;;;;5092832;28;19908;-64
2021/08/04 03:14:16;;;;;;;;;;;14.60;69.10;;;;;;5092864;28;19965;-64
2021/08/04 03:16:44;;;;;;;;;;;14.60;68.50;;;;;;5092729;28;19912;-64
2021/08/04 03:19:11;;;;;;;;;;;14.60;69.60;;;;;;5092417;28;19908;-64
2021/08/04 03:21:38;;;;;;;;;;;14.50;70.20;;;;;;5074385;28;20425;-64
2021/08/04 03:24:05;;;;;;;;;;;14.50;70.90;;;;;;5093079;28;19914;-64
2021/08/04 03:26:32;;;;;;;;;;;14.60;69.50;;;;;;5092296;28;19916;-64
2021/08/04 03:28:59;;;;;;;;;;;14.50;68.60;;;;;;5092535;28;19965;-65
2021/08/04 03:31:25;;;;;;;;;;;14.50;68.60;;;;;;5092506;28;19908;-64
2021/08/04 03:33:52;;;;;;;;;;;14.60;69.00;;;;;;5092326;28;19908;-64
2021/08/04 03:36:18;;;;;;;;;;;14.50;69.00;;;;;;5092606;28;19916;-65
2021/08/04 03:38:45;;;;;;;;;;;14.50;69.20;;;;;;5092547;28;20002;-64
2021/08/04 03:41:12;;;;;;;;;;;14.50;69.00;;;;;;5092509;28;19915;-66
2021/08/04 03:43:38;;;;;;;;;;;14.50;69.70;;;;;;5092368;28;19908;-64
2021/08/04 03:46:05;;;;;;;;;;;14.60;70.10;;;;;;5092100;28;19925;-64
2021/08/04 03:48:32;;;;;;;;;;;14.60;70.60;;;;;;5092341;28;20443;-65
2021/08/04 03:50:58;;;;;;;;;;;14.60;70.00;;;;;;5092250;28;19908;-65
2021/08/04 03:53:25;;;;;;;;;;;14.60;70.30;;;;;;5092329;28;19910;-65
2021/08/04 03:55:52;;;;;;;;;;;14.60;70.70;;;;;;5092134;28;19912;-65
2021/08/04 03:58:18;;;;;;;;;;;14.60;70.30;;;;;;5092313;28;19947;-65
2021/08/04 04:00:45;;;;;;;;;;;14.70;70.20;;;;;;5092077;28;20416;-65
2021/08/04 04:03:12;;;;;;;;;;;14.70;70.20;;;;;;5092230;28;19912;-65
2021/08/04 04:05:39;;;;;;;;;;;14.70;70.30;;;;;;5091785;28;20420;-65
2021/08/04 04:08:06;;;;;;;;;;;14.60;70.70;;;;;;5092028;28;19947;-65
2021/08/04 04:10:32;;;;;;;;;;;14.70;70.60;;;;;;5091924;28;19912;-66
2021/08/04 04:12:59;;;;;;;;;;;14.70;70.10;;;;;;5092073;28;20301;-65
2021/08/04 04:15:26;;;;;;;;;;;14.70;70.40;;;;;;5091822;28;19915;-65
2021/08/04 04:17:52;;;;;;;;;;;14.70;70.60;;;;;;5091702;28;19934;-66
2021/08/04 04:20:19;;;;;;;;;;;14.60;71.00;;;;;;5092065;28;20366;-65
2021/08/04 04:22:46;;;;;;;;;;;14.50;72.10;;;;;;5091715;28;19908;-65
2021/08/04 04:25:14;;;;;;;;;;;14.60;72.50;;;;;;5091951;28;19920;-66
2021/08/04 04:27:41;;;;;;;;;;;14.60;71.50;;;;;;5092169;28;19908;-64
2021/08/04 04:30:09;;;;;;;;;;;14.60;71.90;;;;;;5091942;28;19908;-65
2021/08/04 04:32:35;;;;;;;;;;;14.60;72.70;;;;;;5094599;28;19908;-64
2021/08/04 04:35:03;;;;;;;;;;;14.50;72.70;;;;;;5095570;28;19912;-65
2021/08/04 04:37:29;;;;;;;;;;;14.50;73.50;;;;;;5095496;28;19919;-65
2021/08/04 04:39:56;;;;;;;;;;;14.50;73.80;;;;;;5095474;28;19956;-65
2021/08/04 04:42:23;;;;;;;;;;;14.50;72.30;;;;;;5095761;28;20435;-66
2021/08/04 04:44:50;;;;;;;;;;;14.50;70.90;;;;;;5077064;28;20400;-65
2021/08/04 04:47:16;;;;;;;;;;;14.60;72.30;;;;;;5095342;28;19967;-64
2021/08/04 04:49:43;;;;;;;;;;;14.60;70.70;;;;;;5095134;28;22028;-65
2021/08/04 04:52:10;;;;;;;;;;;14.60;71.20;;;;;;5095281;28;19912;-65
2021/08/04 04:54:36;;;;;;;;;;;14.60;71.30;;;;;;5095317;28;19915;-65
2021/08/04 04:57:03;;;;;;;;;;;14.60;70.90;;;;;;5095243;28;20346;-65
2021/08/04 04:59:30;;;;;;;;;;;14.60;72.00;;;;;;5095057;28;20247;-64
2021/08/04 05:01:56;;;;;;;;;;;14.60;70.50;;;;;;5095076;28;19912;-65
2021/08/04 05:04:23;;;;;;;;;;;14.50;71.60;;;;;;5095198;28;19921;-65
2021/08/04 05:06:49;;;;;;;;;;;14.60;70.90;;;;;;5095118;28;19916;-66
2021/08/04 05:09:16;;;;;;;;;;;14.60;71.40;;;;;;5095014;28;19908;-66
2021/08/04 05:11:43;;;;;;;;;;;14.60;71.50;;;;;;5094659;28;19918;-65
2021/08/04 05:14:09;;;;;;;;;;;14.60;72.10;;;;;;5095118;28;20282;-66
2021/08/04 05:16:40;;;;;;;;;;;14.60;71.00;;;;;;5093469;28;19994;-65
2021/08/04 05:19:07;;;;;;;;;;;14.60;71.40;;;;;;5092825;28;19914;-67
2021/08/04 05:21:33;;;;;;;;;;;14.60;71.40;;;;;;5074369;28;19908;-66
2021/08/04 05:24:00;;;;;;;;;;;14.60;71.00;;;;;;5094318;28;19908;-66
2021/08/04 05:26:27;;;;;;;;;;;14.50;71.60;;;;;;5094616;28;20294;-66
2021/08/04 05:28:54;;;;;;;;;;;14.60;71.60;;;;;;5094499;28;19909;-65
2021/08/04 05:31:21;;;;;;;;;;;14.60;71.40;;;;;;5094581;28;19912;-66
2021/08/04 05:33:48;;;;;;;;;;;14.50;72.50;;;;;;5076434;28;19988;-66
2021/08/04 05:36:14;;;;;;;;;;;14.50;71.10;;;;;;5094718;28;20282;-66
2021/08/04 05:38:41;;;;;;;;;;;14.50;73.10;;;;;;5087107;28;20367;-65
2021/08/04 05:41:08;;;;;;;;;;;14.40;72.20;;;;;;5090578;28;19908;-66
2021/08/04 05:43:35;;;;;;;;;;;14.50;72.40;;;;;;5071229;28;19915;-66
2021/08/04 05:46:01;;;;;;;;;;;14.40;72.20;;;;;;5093598;28;19920;-67
2021/08/04 05:48:28;;;;;;;;;;;14.40;72.90;;;;;;5094219;28;20389;-66
2021/08/04 05:50:55;;;;;;;;;;;14.40;72.80;;;;;;5092717;28;20019;-66
2021/08/04 05:53:25;;;;;;;;;;;14.40;73.20;;;;;;5093753;28;19915;-65
2021/08/04 05:55:52;;;;;;;;;;;14.40;73.10;;;;;;5094090;28;20274;-64
2021/08/04 05:58:18;;;;;;;;;;;14.30;73.50;;;;;;5094248;28;19908;-65
2021/08/04 06:00:45;;;;;;;;;;;14.30;74.00;;;;;;5094066;28;19914;-66
2021/08/04 06:03:12;;;;;;;;;;;14.30;74.60;;;;;;5093182;28;19912;-65
2021/08/04 06:05:42;;;;;;;;;;;14.30;74.30;;;;;;5094220;28;19923;-65
2021/08/04 06:08:10;;;;;;;;;;;14.30;74.60;;;;;;5094404;28;20029;-66
2021/08/04 06:10:46;;;;;;;;;;;14.20;74.60;;;;;;5093894;28;20421;-66
2021/08/04 06:13:13;;;;;;;;;;;14.20;75.30;;;;;;5093767;28;19912;-65
2021/08/04 06:15:40;;;;;;;;;;;14.20;74.90;;;;;;5093451;28;20259;-65
2021/08/04 06:18:06;;;;;;;;;;;14.20;74.70;;;;;;5094027;28;19915;-65
2021/08/04 06:20:33;;;;;;;;;;;14.20;74.90;;;;;;5093765;28;19912;-65
2021/08/04 06:23:00;;;;;;;;;;;14.20;75.10;;;;;;5093514;28;19977;-65
2021/08/04 06:25:26;;;;;;;;;;;14.10;75.70;;;;;;5093369;28;19919;-65
2021/08/04 06:27:54;;;;;;;;;;;14.00;75.40;;;;;;5093230;28;19919;-64
2021/08/04 06:30:21;;;;;;;;;;;14.10;76.10;;;;;;5093106;28;19912;-65
2021/08/04 06:32:48;;;;;;;;;;;14.00;76.40;;;;;;5093019;28;19912;-64
2021/08/04 06:35:15;;;;;;;;;;;13.90;76.70;;;;;;5092896;28;19914;-64
2021/08/04 06:37:41;;;;;;;;;;;13.90;76.70;;;;;;5093003;28;20282;-65
2021/08/04 06:40:08;;;;;;;;;;;13.90;77.40;;;;;;5093523;28;20004;-65
2021/08/04 06:42:35;;;;;;;;;;;13.90;77.80;;;;;;5093228;28;19981;-65
2021/08/04 06:45:02;;;;;;;;;;;13.80;78.00;;;;;;5092985;28;20302;-65
2021/08/04 06:47:28;;;;;;;;;;;13.80;78.00;;;;;;5092952;28;19954;-64
2021/08/04 06:49:55;;;;;;;;;;;13.80;78.40;;;;;;5092991;28;19912;-64
2021/08/04 06:52:22;;;;;;;;;;;13.80;78.60;;;;;;5090720;28;19912;-65
2021/08/04 06:54:48;;;;;;;;;;;13.70;78.20;;;;;;5090649;28;19915;-65
2021/08/04 06:57:15;;;;;;;;;;;13.60;78.80;;;;;;5091036;28;20569;-65
2021/08/04 06:59:42;;;;;;;;;;;13.60;78.70;;;;;;5090924;28;19995;-68
2021/08/04 07:02:08;;;;;;;;;;;13.60;78.70;;;;;;5090884;28;19977;-66
2021/08/04 07:04:35;;;;;;;;;;;13.50;79.90;;;;;;5090353;28;19945;-65
2021/08/04 07:07:02;;;;;;;;;;;13.50;80.10;;;;;;5090552;28;19916;-66
2021/08/04 07:09:32;;;;;;;;;;;13.40;80.20;;;;;;5090817;28;19908;-66
2021/08/04 07:11:58;;;;;;;;;;;13.40;80.00;;;;;;5072647;28;19912;-65
2021/08/04 07:14:25;;;;;;;;;;;13.40;80.30;;;;;;5091726;28;19912;-65
2021/08/04 07:16:52;;;;;;;;;;;13.40;80.10;;;;;;5091918;28;19919;-64
2021/08/04 07:19:18;;;;;;;;;;;13.30;80.70;;;;;;5091893;28;19916;-64
2021/08/04 07:21:45;;;;;;;;;;;13.30;81.40;;;;;;5091272;28;19951;-64
2021/08/04 07:24:12;;;;;;;;;;;13.30;80.90;;;;;;5090949;28;19912;-64
2021/08/04 07:26:40;;;;;;;;;;;13.30;81.60;;;;;;5090870;28;20130;-63
2021/08/04 07:29:07;;;;;;;;;;;13.30;81.80;;;;;;5090639;28;19908;-65
2021/08/04 07:31:34;;;;;;;;;;;13.30;82.70;;;;;;5089915;28;19912;-65
2021/08/04 07:34:01;;;;;;;;;;;13.20;80.90;;;;;;5090454;28;20007;-65
2021/08/04 07:36:27;;;;;;;;;;;13.20;81.40;;;;;;5082661;28;20371;-65
2021/08/04 07:38:54;;;;;;;;;;;13.10;81.20;;;;;;5089758;28;20523;-64
2021/08/04 07:41:21;;;;;;;;;;;13.10;81.30;;;;;;5090505;28;19935;-65
2021/08/04 07:43:49;;;;;;;;;;;13.10;81.70;;;;;;5090081;28;20283;-65
2021/08/04 07:46:22;;;;;;;;;;;13.10;81.90;;;;;;5090119;28;19963;-65
2021/08/04 07:48:48;;;;;;;;;;;13.10;81.70;;;;;;5071916;28;20060;-66
2021/08/04 07:51:15;;;;;;;;;;;13.10;81.50;;;;;;5089594;28;20363;-66
2021/08/04 07:53:42;;;;;;;;;;;13.00;82.10;;;;;;5078790;28;19909;-65
2021/08/04 07:56:09;;;;;;;;;;;13.00;82.10;;;;;;5069855;28;19908;-64
2021/08/04 07:58:35;;;;;;;;;;;13.00;82.70;;;;;;5070144;28;19912;-66
2021/08/04 08:01:05;;;;;;;;;;;13.00;82.10;;;;;;5076449;28;19912;-66
2021/08/04 08:03:32;;;;;;;;;;;12.90;82.00;;;;;;5089344;28;19919;-66
2021/08/04 08:05:59;;;;;;;;;;;12.90;82.20;;;;;;5089701;28;19986;-65
2021/08/04 08:08:26;;;;;;;;;;;12.90;82.60;;;;;;5076054;28;19951;-64
2021/08/04 08:10:53;;;;;;;;;;;12.90;83.20;;;;;;5094502;28;20457;-64
2021/08/04 08:13:20;;;;;;;;;;;12.80;83.00;;;;;;5094082;28;20374;-63
2021/08/04 08:15:48;;;;;;;;;;;12.90;83.80;;;;;;5093605;28;20664;-64
2021/08/04 08:18:15;;;;;;;;;;;12.80;83.60;;;;;;5093460;28;19942;-65
2021/08/04 08:20:42;;;;;;;;;;;12.80;83.60;;;;;;5093647;28;19959;-65
2021/08/04 08:23:09;;;;;;;;;;;12.70;83.80;;;;;;5093838;28;19919;-64
2021/08/04 08:25:37;;;;;;;;;;;12.70;84.10;;;;;;5093515;28;19961;-63
2021/08/04 08:28:03;;;;;;;;;;;12.70;83.70;;;;;;5093695;28;19915;-63
2021/08/04 08:30:30;;;;;;;;;;;12.70;84.80;;;;;;5093831;28;19915;-64
2021/08/04 08:32:57;;;;;;;;;;;12.70;84.40;;;;;;5093241;28;19919;-64
2021/08/04 08:35:24;;;;;;;;;;;12.60;84.60;;;;;;5093798;28;19966;-64
2021/08/04 08:37:50;;;;;;;;;;;12.60;84.70;;;;;;5093363;28;19912;-64
2021/08/04 08:40:18;;;;;;;;;;;12.60;84.70;;;;;;5093674;28;19912;-65
2021/08/04 08:42:45;;;;;;;;;;;12.60;85.90;;;;;;5093658;28;19955;-63
2021/08/04 08:45:12;;;;;;;;;;;12.60;84.70;;;;;;5092652;28;19931;-64
2021/08/04 08:47:39;;;;;;;;;;;12.50;85.70;;;;;;5092997;28;20290;-66
2021/08/04 08:50:06;;;;;;;;;;;12.60;85.10;;;;;;5093010;28;19935;-65
2021/08/04 08:52:33;;;;;;;;;;;12.60;84.60;;;;;;5093580;28;19947;-65
2021/08/04 08:55:01;;;;;;;;;;;12.60;85.00;;;;;;5093479;28;19923;-64
2021/08/04 08:57:28;;;;;;;;;;;12.50;85.00;;;;;;5093373;28;19908;-66
2021/08/04 08:59:57;;;;;;;;;;;12.60;85.30;;;;;;5092350;28;20344;-64
2021/08/04 09:02:28;;;;;;;;;;;12.50;85.90;;;;;;5093109;28;20416;-65
2021/08/04 09:05:02;;;;;;;;;;;12.50;86.00;;;;;;5092904;28;19977;-65
2021/08/04 09:07:33;;;;;;;;;;;12.50;84.90;;;;;;5095002;28;19947;-66
2021/08/04 09:10:01;;;;;;;;;;;12.50;85.80;;;;;;5095123;28;19915;-65
2021/08/04 09:12:28;;;;;;;;;;;12.40;85.70;;;;;;5094906;28;19912;-64
2021/08/04 09:14:54;;;;;;;;;;;12.50;86.10;;;;;;5094950;28;19939;-65
2021/08/04 09:17:21;;;;;;;;;;;12.50;86.50;;;;;;5094346;28;19962;-65
2021/08/04 09:19:53;;;;;;;;;;;12.50;85.80;;;;;;5094458;28;19914;-66
2021/08/04 09:22:25;;;;;;;;;;;12.40;85.80;;;;;;5095000;28;20374;-66
2021/08/04 09:24:55;;;;;;;;;;;12.40;86.20;;;;;;5094501;28;19975;-64
2021/08/04 09:27:37;;;;;;;;;;;12.40;87.10;;;;;;5094629;28;20366;-66
2021/08/04 09:30:04;;;;;;;;;;;12.40;86.80;;;;;;5094693;28;19912;-66
2021/08/04 09:32:31;;;;;;;;;;;12.40;87.70;;;;;;5094124;28;19961;-64
2021/08/04 09:35:06;;;;;;;;;;;12.40;87.30;;;;;;5094663;28;20412;-66
2021/08/04 09:37:32;;;;;;;;;;;12.30;87.00;;;;;;5094168;28;19912;-65
2021/08/04 09:40:01;;;;;;;;;;;12.30;87.80;;;;;;5094269;28;19994;-66
2021/08/04 09:42:57;;;;;;;;;;;12.30;87.10;;;;;;5094447;28;19951;-66
2021/08/04 09:45:36;;;;;;;;;;;12.30;88.40;;;;;;5078246;28;19924;-65
2021/08/04 09:48:11;;;;;;;;;;;12.30;88.10;;;;;;5086047;28;20299;-66
2021/08/04 09:50:45;;;;;;;;;;;12.30;88.10;;;;;;5074089;28;20375;-65
2021/08/04 09:53:17;;;;;;;;;;;12.30;87.90;;;;;;5074128;28;19909;-63
2021/08/04 09:56:02;;;;;;;;;;;12.20;88.60;;;;;;5073710;28;20269;-64
2021/08/04 09:58:29;;;;;;;;;;;12.20;88.90;;;;;;5074028;28;19908;-65
2021/08/04 10:00:56;;;;;;;;;;;12.20;88.20;;;;;;5074040;28;19912;-64
2021/08/04 10:03:23;;;;;;;;;;;12.20;88.70;;;;;;5074032;28;19969;-65
2021/08/04 10:05:49;;;;;;;;;;;12.10;89.00;;;;;;5072306;28;19996;-64
2021/08/04 10:08:16;;;;;;;;;;;12.10;88.80;;;;;;5073895;28;20291;-63
2021/08/04 10:10:43;;;;;;;;;;;12.10;88.60;;;;;;5073668;28;20329;-65
2021/08/04 10:13:14;;;;;;;;;;;12.10;89.40;;;;;;5082355;28;20374;-65
2021/08/04 10:15:44;;;;;;;;;;;12.10;90.00;;;;;;5093620;28;19908;-65
2021/08/04 10:18:12;;;;;;;;;;;12.00;88.30;;;;;;5093634;28;19908;-64
2021/08/04 10:20:40;;;;;;;;;;;12.00;90.00;;;;;;5093759;28;19915;-64
2021/08/04 10:23:08;;;;;;;;;;;12.00;89.00;;;;;;5093713;28;19970;-65
2021/08/04 10:25:35;;;;;;;;;;;12.00;88.30;;;;;;5093363;28;20969;-65
2021/08/04 10:28:03;;;;;;;;;;;12.10;89.50;;;;;;5093189;28;20008;-63
2021/08/04 10:30:30;;;;;;;;;;;12.00;88.30;;;;;;5092694;28;19951;-64
2021/08/04 10:32:57;;;;;;;;;;;12.00;88.60;;;;;;5093503;28;19945;-63
2021/08/04 10:35:24;;;;;;;;;;;12.10;88.80;;;;;;5093399;28;19947;-63
2021/08/04 10:37:51;;;;;;;;;;;12.00;88.60;;;;;;5093183;28;19947;-64
2021/08/04 10:40:18;;;;;;;;;;;12.00;90.20;;;;;;5093640;28;19914;-64
2021/08/04 10:42:45;;;;;;;;;;;12.00;89.10;;;;;;5092513;28;19908;-64
2021/08/04 10:45:24;;;;;;;;;;;12.00;89.70;;;;;;5093282;28;20018;-65
2021/08/04 10:47:52;;;;;;;;;;;12.00;90.10;;;;;;5093285;28;19958;-63
2021/08/04 10:50:19;;;;;;;;;;;12.10;90.10;;;;;;5093025;28;19943;-66
2021/08/04 10:53:06;;;;;;;;;;;12.10;89.90;;;;;;5093034;28;19939;-65
2021/08/04 10:55:50;;;;;;;;;;;12.10;89.90;;;;;;5092979;28;19917;-64
2021/08/04 10:58:17;;;;;;;;;;;12.00;89.00;;;;;;5092690;28;19908;-66
2021/08/04 11:00:44;;;;;;;;;;;12.00;89.80;;;;;;5092961;28;19944;-65
2021/08/04 11:03:29;;;;;;;;;;;12.00;90.20;;;;;;5091687;28;19914;-64
2021/08/04 11:06:15;;;;;;;;;;;12.10;90.30;;;;;;5090839;28;19922;-66
2021/08/04 11:08:47;;;;;;;;;;;12.00;89.80;;;;;;5072206;28;19916;-67
2021/08/04 11:11:33;;;;;;;;;;;12.00;90.00;;;;;;5089959;28;20431;-68
2021/08/04 11:14:00;;;;;;;;;;;12.00;89.90;;;;;;5090059;28;19914;-64
2021/08/04 11:16:26;;;;;;;;;;;12.00;90.80;;;;;;5090606;28;19954;-67
2021/08/04 11:19:01;;;;;;;;;;;12.00;90.30;;;;;;5090434;28;19912;-66
2021/08/04 11:21:27;;;;;;;;;;;12.00;89.70;;;;;;5090585;28;20019;-64
2021/08/04 11:23:54;;;;;;;;;;;11.90;90.60;;;;;;5090566;28;19915;-65
2021/08/04 11:26:22;;;;;;;;;;;12.00;90.80;;;;;;5090007;28;19942;-65
2021/08/04 11:28:49;;;;;;;;;;;12.00;89.80;;;;;;5090353;28;20032;-64
2021/08/04 11:31:17;;;;;;;;;;;12.00;90.30;;;;;;5090152;28;20371;-66
2021/08/04 11:33:44;;;;;;;;;;;12.00;90.40;;;;;;5072188;28;20314;-66
2021/08/04 11:36:12;;;;;;;;;;;12.00;89.80;;;;;;5090183;28;19912;-67
2021/08/04 11:38:52;;;;;;;;;;;12.00;90.70;;;;;;5090347;28;20051;-67
2021/08/04 11:41:21;;;;;;;;;;;11.90;90.40;;;;;;5089788;28;19998;-66
2021/08/04 11:43:49;;;;;;;;;;;11.90;90.00;;;;;;5089786;28;19915;-67
2021/08/04 11:46:32;;;;;;;;;;;11.90;90.20;;;;;;5090078;28;20125;-66
2021/08/04 11:48:59;;;;;;;;;;;11.90;90.20;;;;;;5072525;28;19920;-66
2021/08/04 11:51:36;;;;;;;;;;;11.90;90.10;;;;;;5090343;28;19931;-65
2021/08/04 11:54:03;;;;;;;;;;;11.90;90.30;;;;;;5090203;28;19965;-65
2021/08/04 11:56:29;;;;;;;;;;;11.80;90.30;;;;;;5089491;28;19908;-66
2021/08/04 11:59:00;;;;;;;;;;;11.80;90.90;;;;;;5089810;28;19908;-66
2021/08/04 12:01:27;;;;;;;;;;;11.80;90.30;;;;;;5090146;28;19912;-65
2021/08/04 12:04:12;;;;;;;;;;;11.80;90.70;;;;;;5089954;28;19942;-65
2021/08/04 12:06:40;;;;;;;;;;;11.90;90.70;;;;;;5089616;28;19955;-66
2021/08/04 12:09:26;;;;;;;;;;;11.90;90.90;;;;;;5089796;28;19965;-64
2021/08/04 12:11:54;;;;;;;;;;;11.80;90.60;;;;;;5089856;28;19919;-63
2021/08/04 12:14:20;;;;;;;;;;;11.80;90.40;;;;;;5089777;28;19908;-64
2021/08/04 12:16:48;;;;;;;;;;;11.80;90.50;;;;;;5090014;28;20286;-64
2021/08/04 12:19:28;;;;;;;;;;;11.80;90.60;;;;;;5090081;28;19908;-65
2021/08/04 12:21:55;;;;;;;;;;;11.80;90.40;;;;;;5089530;28;20386;-64
2021/08/04 12:24:22;;;;;;;;;;;11.80;90.50;;;;;;5089824;28;19908;-65
2021/08/04 12:26:49;;;;;;;;;;;11.70;90.60;;;;;;5089911;28;20325;-65
2021/08/04 12:29:19;;;;;;;;;;;11.70;90.70;;;;;;5089779;28;19908;-66
2021/08/04 12:32:15;;;;;;;;;;;11.70;90.70;;;;;;5089807;28;19999;-65
2021/08/04 12:34:58;;;;;;;;;;;11.60;90.80;;;;;;5087684;28;20007;-64
2021/08/04 12:37:25;;;;;;;;;;;11.60;90.90;;;;;;5089728;28;19977;-66
2021/08/04 12:39:53;;;;;;;;;;;11.60;91.20;;;;;;5089532;28;19908;-65
2021/08/04 12:42:20;;;;;;;;;;;11.60;91.00;;;;;;5089799;28;20010;-64
2021/08/04 12:44:47;;;;;;;;;;;11.60;91.10;;;;;;5089544;28;19951;-65
2021/08/04 12:47:15;;;;;;;;;;;11.60;90.90;;;;;;5089846;28;19912;-65
2021/08/04 12:49:42;;;;;;;;;;;11.60;91.00;;;;;;5089297;28;19912;-64
2021/08/04 12:52:09;;;;;;;;;;;11.60;91.30;;;;;;5090054;28;19974;-65
2021/08/04 12:54:37;;;;;;;;;;;11.60;91.20;;;;;;5093422;28;19919;-64
2021/08/04 12:57:18;;;;;;;;;;;11.60;91.40;;;;;;5093245;28;19919;-66
2021/08/04 12:59:45;;;;;;;;;;;11.70;91.50;;;;;;5092924;28;19965;-65
2021/08/04 13:02:13;;;;;;;;;;;11.70;91.40;;;;;;5092918;28;19912;-65
2021/08/04 13:04:44;;;;;;;;;;;11.70;91.20;;;;;;5092434;28;19919;-66
2021/08/04 13:07:11;;;;;;;;;;;11.70;91.50;;;;;;5074715;28;19908;-65
2021/08/04 13:09:38;;;;;;;;;;;11.70;91.30;;;;;;5093028;28;20291;-65
2021/08/04 13:12:15;;;;;;;;;;;11.70;91.60;;;;;;5092843;28;19908;-65
2021/08/04 13:15:00;;;;;;;;;;;11.70;91.40;;;;;;5092797;28;20417;-65
2021/08/04 13:17:28;;;;;;;;;;;11.70;91.40;;;;;;5093082;28;19958;-66
2021/08/04 13:20:10;;;;;;;;;;;11.70;91.30;;;;;;5092698;28;19908;-66
2021/08/04 13:22:55;;;;;;;;;;;11.70;91.20;;;;;;5092830;28;19908;-64
2021/08/04 13:25:22;;;;;;;;;;;11.60;91.40;;;;;;5092676;28;19942;-64
2021/08/04 13:28:00;;;;;;;;;;;11.60;91.60;;;;;;5091990;28;19908;-64
2021/08/04 13:30:28;;;;;;;;;;;11.60;91.50;;;;;;5092995;28;19930;-64
2021/08/04 13:32:55;;;;;;;;;;;11.50;91.60;;;;;;5092485;28;19908;-65
2021/08/04 13:35:22;;;;;;;;;;;11.60;91.80;;;;;;5092515;28;19963;-64
2021/08/04 13:37:49;;;;;;;;;;;11.60;91.80;;;;;;5092492;28;19912;-66
2021/08/04 13:40:16;;;;;;;;;;;11.60;91.50;;;;;;5092303;28;19958;-64
2021/08/04 13:42:43;;;;;;;;;;;11.50;91.80;;;;;;5092242;28;19912;-64
2021/08/04 13:45:14;;;;;;;;;;;11.50;91.70;;;;;;5091875;28;19989;-64
2021/08/04 13:47:41;;;;;;;;;;;11.40;91.90;;;;;;5091938;28;19915;-65
2021/08/04 13:50:09;;;;;;;;;;;11.50;91.90;;;;;;5092269;28;20026;-65
2021/08/04 13:52:36;;;;;;;;;;;11.50;92.00;;;;;;5092369;28;19915;-66
2021/08/04 13:55:05;;;;;;;;;;;11.50;92.20;;;;;;5091805;28;19918;-64
2021/08/04 13:57:31;;;;;;;;;;;11.50;91.90;;;;;;5091846;28;20373;-64
2021/08/04 13:59:58;;;;;;;;;;;11.50;92.00;;;;;;5092200;28;20425;-64
2021/08/04 14:02:25;;;;;;;;;;;11.50;92.10;;;;;;5092404;28;19943;-64
2021/08/04 14:04:52;;;;;;;;;;;11.50;92.20;;;;;;5091029;28;20347;-64
2021/08/04 14:07:18;;;;;;;;;;;11.50;92.20;;;;;;5091621;28;20359;-66
2021/08/04 14:09:47;;;;;;;;;;;11.50;92.30;;;;;;5091831;28;20648;-66
2021/08/04 14:12:14;;;;;;;;;;;11.50;92.30;;;;;;5091625;28;19931;-66
2021/08/04 14:14:40;;;;;;;;;;;11.50;92.20;;;;;;5091915;28;19954;-66
2021/08/04 14:17:07;;;;;;;;;;;11.50;91.90;;;;;;5091699;28;19912;-66
2021/08/04 14:19:34;;;;;;;;;;;11.50;91.90;;;;;;5091290;28;19918;-66
2021/08/04 14:22:00;;;;;;;;;;;11.40;92.20;;;;;;5091605;28;19947;-65
2021/08/04 14:24:27;;;;;;;;;;;11.50;92.00;;;;;;5091812;28;19908;-66